Time;durP1;ratioP1;P1;durP2;ratioP2;P2;SDS_P1;SDS_P2;PMS_P1;PMS_P2;Temp;Humidity;BMP_temperature;BMP_pressure;BME280_temperature;BME280_humidity;BME280_pressure;Samples;Min_cycle;Max_cycle;Signal;HPM_P1;HPM_P2
2021/12/14 00:01:23;;;;;;;14.70;10.82;;;;;;;9.09;68.63;102126.34;4149254;28;20295;-56
2021/12/14 00:03:29;;;;;;;17.60;8.88;;;;;;;9.16;72.02;102129.25;4148651;28;20038;-54
2021/12/14 00:05:34;;;;;;;21.50;10.68;;;;;;;9.46;72.45;102134.94;4149436;28;20042;-52
2021/12/14 00:07:37;;;;;;;14.35;10.30;;;;;;;9.79;70.29;102132.09;4144529;28;20121;-59
2021/12/14 00:09:43;;;;;;;13.48;9.55;;;;;;;9.79;67.60;102135.56;4140686;28;20050;-57
2021/12/14 00:11:56;;;;;;;13.25;9.07;;;;;;;9.68;67.66;102130.72;4134525;28;20507;-58
2021/12/14 00:14:25;;;;;;;13.25;9.63;;;;;;;9.49;67.72;102135.09;4141680;28;20092;-57
2021/12/14 00:16:28;;;;;;;12.93;9.88;;;;;;;9.25;68.02;102133.13;4149371;28;20473;-58
2021/12/14 00:18:32;;;;;;;13.88;9.82;;;;;;;9.23;68.60;102128.72;4148212;28;20388;-57
2021/12/14 00:20:39;;;;;;;13.55;10.38;;;;;;;9.17;68.59;102131.91;4148484;28;20124;-57
2021/12/14 00:25:08;;;;;;;13.18;9.35;;;;;;;8.95;69.38;102130.00;4142155;28;20692;-58
2021/12/14 00:27:13;;;;;;;12.80;9.77;;;;;;;8.96;69.28;102126.56;4149251;28;20534;-55
2021/12/14 00:29:19;;;;;;;14.00;9.80;;;;;;;8.97;69.19;102124.88;4147617;28;20515;-56
2021/12/14 00:31:22;;;;;;;14.35;9.90;;;;;;;8.85;69.24;102125.19;4147948;28;20048;-57
2021/12/14 00:33:30;;;;;;;13.50;9.50;;;;;;;8.86;69.37;102129.53;4148931;28;20092;-55
2021/12/14 00:35:33;;;;;;;15.38;11.00;;;;;;;8.88;69.43;102128.81;4147938;28;20049;-54
2021/12/14 00:37:39;;;;;;;15.13;10.32;;;;;;;8.89;69.33;102128.00;4144979;28;20046;-57
2021/12/14 00:39:43;;;;;;;13.93;9.65;;;;;;;8.89;69.19;102133.19;4148654;28;20440;-57
2021/12/14 00:41:46;;;;;;;13.67;9.73;;;;;;;8.77;69.55;102134.28;4148659;28;20073;-57
2021/12/14 00:43:49;;;;;;;15.20;9.57;;;;;;;8.80;69.58;102129.25;4149445;28;20075;-55
2021/12/14 00:45:54;;;;;;;14.57;10.55;;;;;;;8.82;69.53;102128.53;4148240;28;20101;-59
2021/12/14 00:47:58;;;;;;;17.85;12.50;;;;;;;8.81;69.34;102123.25;4130581;28;20105;-56
2021/12/14 00:50:01;;;;;;;15.80;11.50;;;;;;;8.78;69.32;102123.13;4130557;28;20042;-57
2021/12/14 00:52:07;;;;;;;14.02;9.02;;;;;;;8.78;69.58;102128.31;4148344;28;20038;-59
2021/12/14 00:54:15;;;;;;;16.65;9.90;;;;;;;8.80;69.44;102121.47;4148500;28;20092;-58
2021/12/14 00:56:19;;;;;;;14.80;10.32;;;;;;;8.79;69.47;102120.59;4147916;28;20074;-56
2021/12/14 00:58:23;;;;;;;15.10;9.98;;;;;;;8.83;69.41;102129.41;4144892;28;20141;-57
2021/12/14 01:00:31;;;;;;;14.15;10.55;;;;;;;8.85;69.22;102132.97;4130570;28;20397;-57
2021/12/14 01:02:36;;;;;;;13.68;9.77;;;;;;;8.88;68.94;102127.94;4131041;28;20050;-57
2021/12/14 01:04:45;;;;;;;16.15;10.20;;;;;;;8.88;69.21;102130.53;4146434;28;20030;-60
2021/12/14 01:06:49;;;;;;;15.32;11.07;;;;;;;8.92;68.95;102132.41;4130805;28;20571;-57
2021/12/14 01:08:52;;;;;;;15.48;10.98;;;;;;;8.89;69.07;102132.28;4146859;28;20049;-60
2021/12/14 01:11:02;;;;;;;14.90;10.43;;;;;;;8.88;68.85;102121.03;4145545;28;20140;-58
2021/12/14 01:13:08;;;;;;;14.27;9.93;;;;;;;8.87;68.97;102131.34;4129747;28;20511;-56
2021/12/14 01:15:26;;;;;;;17.33;10.35;;;;;;;8.84;68.80;102128.59;4146662;28;20050;-58
2021/12/14 01:17:41;;;;;;;13.25;9.10;;;;;;;8.81;69.33;102124.13;4147549;28;20053;-58
2021/12/14 01:19:51;;;;;;;18.83;10.48;;;;;;;8.73;69.35;102131.56;4146895;28;20046;-58
2021/12/14 01:22:14;;;;;;;13.32;9.63;;;;;;;8.78;68.96;102128.31;4146652;28;20068;-58
2021/12/14 01:24:41;;;;;;;12.32;9.55;;;;;;;8.72;69.22;102134.06;4129982;28;20050;-59
2021/12/14 01:26:46;;;;;;;14.45;9.20;;;;;;;8.70;68.91;102131.41;4146640;28;20088;-57
2021/12/14 01:28:49;;;;;;;13.30;9.27;;;;;;;8.65;69.28;102132.88;4144895;28;20049;-57
2021/12/14 01:31:03;;;;;;;12.25;9.38;;;;;;;8.68;68.74;102135.63;4129872;28;20050;-56
2021/12/14 01:33:11;;;;;;;14.15;9.50;;;;;;;8.67;68.85;102136.44;4147754;28;20510;-59
2021/12/14 01:35:21;;;;;;;16.30;9.88;;;;;;;8.72;68.62;102132.38;4130031;28;20042;-58
2021/12/14 01:37:28;;;;;;;14.13;10.32;;;;;;;8.72;68.63;102129.78;4146136;28;20139;-60
2021/12/14 01:39:48;;;;;;;14.98;10.00;;;;;;;8.72;68.64;102134.06;4146146;28;20045;-58
2021/12/14 01:41:56;;;;;;;13.80;9.45;;;;;;;8.74;68.92;102130.72;4145957;28;20144;-55
2021/12/14 01:44:00;;;;;;;13.80;9.88;;;;;;;8.71;68.59;102127.97;4130235;28;20105;-58
2021/12/14 01:46:16;;;;;;;14.70;10.18;;;;;;;8.72;68.86;102124.59;4145437;28;20041;-60
2021/12/14 01:48:20;;;;;;;17.00;9.88;;;;;;;8.67;68.81;102126.09;4146344;28;20042;-58
2021/12/14 01:50:44;;;;;;;14.38;9.63;;;;;;;8.66;68.75;102126.88;4129557;28;20445;-56
2021/12/14 01:53:07;;;;;;;16.25;9.27;;;;;;;8.66;69.31;102131.16;4136719;28;20049;-56
2021/12/14 01:55:17;;;;;;;12.35;8.90;;;;;;;8.71;68.70;102122.78;4146194;28;20140;-60
2021/12/14 01:57:23;;;;;;;12.15;9.02;;;;;;;8.73;68.54;102122.88;4146934;28;20108;-60
2021/12/14 01:59:34;;;;;;;11.98;8.85;;;;;;;8.70;68.13;102127.91;4129145;28;20038;-58
2021/12/14 02:01:46;;;;;;;12.23;8.90;;;;;;;8.65;68.30;102127.69;4146149;28;20136;-59
2021/12/14 02:03:53;;;;;;;15.82;9.00;;;;;;;8.65;68.37;102126.81;4120469;28;20062;-59
2021/12/14 02:05:58;;;;;;;13.77;8.27;;;;;;;8.66;68.28;102125.97;4145124;28;20046;-58
2021/12/14 02:08:03;;;;;;;10.52;8.00;;;;;;;8.69;68.48;102123.56;4145384;28;20056;-58
2021/12/14 02:10:10;;;;;;;10.82;7.38;;;;;;;8.71;68.13;102116.72;4145341;28;20045;-59
2021/12/14 02:12:16;;;;;;;10.93;7.60;;;;;;;8.71;67.70;102122.78;4146962;28;20065;-59
2021/12/14 02:14:20;;;;;;;9.65;7.18;;;;;;;8.64;67.80;102114.66;4131650;28;20056;-59
2021/12/14 02:16:24;;;;;;;11.35;7.30;;;;;;;8.65;67.87;102106.94;4146045;28;20053;-58
2021/12/14 02:18:32;;;;;;;11.50;7.30;;;;;;;8.67;67.57;102105.34;4143721;28;20483;-58
2021/12/14 02:20:38;;;;;;;8.98;6.30;;;;;;;8.71;67.43;102107.25;4145544;28;20053;-58
2021/12/14 02:22:43;;;;;;;11.90;7.05;;;;;;;8.75;67.26;102105.69;4129365;28;20495;-58
2021/12/14 02:24:50;;;;;;;10.13;6.57;;;;;;;8.80;66.90;102113.69;4129463;28;20078;-58
2021/12/14 02:26:55;;;;;;;10.25;6.93;;;;;;;8.81;66.82;102099.94;4146014;28;20104;-56
2021/12/14 02:29:00;;;;;;;11.57;6.85;;;;;;;8.82;66.46;102094.81;4128359;28;20533;-54
2021/12/14 02:31:05;;;;;;;10.90;7.30;;;;;;;8.81;66.41;102094.75;4129528;28;20046;-57
2021/12/14 02:33:20;;;;;;;12.93;6.78;;;;;;;8.80;66.54;102095.53;4147158;28;20509;-57
2021/12/14 02:35:28;;;;;;;9.13;6.40;;;;;;;8.79;67.03;102101.53;4129241;28;20046;-58
2021/12/14 02:37:39;;;;;;;11.38;6.63;;;;;;;8.72;66.45;102103.84;4129935;28;20423;-58
2021/12/14 02:40:00;;;;;;;8.85;6.13;;;;;;;8.74;66.67;102096.13;4144883;28;20038;-57
2021/12/14 02:42:06;;;;;;;10.25;6.43;;;;;;;8.73;66.92;102097.84;4136909;28;20084;-59
2021/12/14 02:44:10;;;;;;;9.82;6.22;;;;;;;8.70;66.80;102101.97;4145296;28;20046;-57
2021/12/14 02:46:17;;;;;;;9.35;6.57;;;;;;;8.70;66.73;102092.53;4129263;28;20056;-60
2021/12/14 02:48:23;;;;;;;10.60;6.72;;;;;;;8.73;66.96;102090.06;4128758;28;20050;-56
2021/12/14 02:50:26;;;;;;;10.27;6.28;;;;;;;8.73;66.77;102084.88;4145888;28;20399;-58
2021/12/14 02:52:35;;;;;;;9.68;6.90;;;;;;;8.76;66.60;102088.44;4129680;28;20109;-57
2021/12/14 02:54:43;;;;;;;9.95;6.70;;;;;;;8.76;66.81;102089.34;4138235;28;20456;-58
2021/12/14 02:56:51;;;;;;;8.98;5.53;;;;;;;8.71;66.86;102083.91;4139072;28;20468;-60
2021/12/14 02:58:57;;;;;;;9.30;6.22;;;;;;;8.70;67.02;102086.44;4136060;28;20050;-60
2021/12/14 03:01:01;;;;;;;9.52;6.28;;;;;;;8.69;67.11;102082.06;4129347;28;20042;-61
2021/12/14 03:03:06;;;;;;;9.38;6.50;;;;;;;8.69;66.97;102071.69;4140904;28;20038;-61
2021/12/14 03:05:12;;;;;;;10.35;6.28;;;;;;;8.69;67.12;102077.78;4145547;28;20140;-61
2021/12/14 03:07:21;;;;;;;10.82;6.05;;;;;;;8.69;66.86;102070.00;4145449;28;20042;-60
2021/12/14 03:09:38;;;;;;;9.20;6.18;;;;;;;8.70;67.08;102074.38;4145503;28;20042;-60
2021/12/14 03:11:42;;;;;;;9.05;6.03;;;;;;;8.64;67.09;102073.16;4144971;28;20136;-60
2021/12/14 03:13:51;;;;;;;9.55;6.32;;;;;;;8.68;67.32;102068.19;4145460;28;20045;-61
2021/12/14 03:15:57;;;;;;;10.93;6.95;;;;;;;8.66;67.09;102069.84;4145958;28;20133;-61
2021/12/14 03:18:05;;;;;;;8.20;5.55;;;;;;;8.66;67.17;102054.28;4144339;28;20038;-61
2021/12/14 03:20:13;;;;;;;8.55;5.72;;;;;;;8.68;67.12;102052.66;4146283;28;20093;-60
2021/12/14 03:22:25;;;;;;;7.25;5.03;;;;;;;8.69;66.79;102048.38;4147274;28;20042;-57
2021/12/14 03:24:28;;;;;;;8.02;5.45;;;;;;;8.69;66.80;102043.19;4146561;28;20050;-61
2021/12/14 03:26:36;;;;;;;8.73;5.38;;;;;;;8.68;66.71;102038.81;4145806;28;20038;-58
2021/12/14 03:28:41;;;;;;;7.60;5.13;;;;;;;8.65;66.70;102042.13;4146752;28;20036;-60
2021/12/14 03:31:00;;;;;;;8.40;5.47;;;;;;;8.62;66.62;102043.72;4128419;28;20046;-61
2021/12/14 03:33:13;;;;;;;8.07;5.30;;;;;;;8.61;66.87;102042.81;4131294;28;20137;-60
2021/12/14 03:35:18;;;;;;;8.02;5.35;;;;;;;8.62;66.66;102033.34;4140070;28;20061;-60
2021/12/14 03:37:25;;;;;;;8.23;5.70;;;;;;;8.64;66.68;102026.50;4132758;28;20034;-60
2021/12/14 03:39:33;;;;;;;8.95;4.93;;;;;;;8.63;66.97;102016.94;4131613;28;20549;-60
2021/12/14 03:41:43;;;;;;;8.80;5.90;;;;;;;8.61;66.97;102009.09;4132409;28;20046;-61
2021/12/14 03:43:53;;;;;;;7.07;5.00;;;;;;;8.64;66.84;102009.25;4132038;28;20065;-61
2021/12/14 03:46:04;;;;;;;7.72;4.88;;;;;;;8.67;67.21;102011.09;4131524;28;20494;-61
2021/12/14 03:48:07;;;;;;;8.55;5.70;;;;;;;8.69;67.08;102012.94;4132609;28;20407;-59
2021/12/14 03:50:13;;;;;;;10.45;7.15;;;;;;;8.71;66.66;102006.13;4134727;28;20512;-59
2021/12/14 03:52:22;;;;;;;10.00;5.82;;;;;;;8.71;66.85;101998.34;4132148;28;20050;-62
2021/12/14 03:54:28;;;;;;;10.30;6.32;;;;;;;8.69;67.41;101999.09;4132303;28;20179;-61
2021/12/14 03:56:31;;;;;;;;;;;;;;;8.50;67.36;101997.34;4148618;28;20038;-62
2021/12/14 03:58:37;;;;;;;9.95;6.70;;;;;;;8.58;67.65;101993.41;4147849;28;20462;-61
2021/12/14 04:00:47;;;;;;;10.77;6.95;;;;;;;8.60;67.72;101986.59;4147392;28;20084;-62
2021/12/14 04:02:54;;;;;;;10.52;6.88;;;;;;;8.57;67.84;101981.25;4134930;28;20061;-60
2021/12/14 04:05:12;;;;;;;10.65;7.63;;;;;;;8.58;68.09;101980.44;4144519;28;20407;-60
2021/12/14 04:07:16;;;;;;;11.85;7.43;;;;;;;8.55;68.08;101976.00;4147332;28;20093;-59
2021/12/14 04:09:31;;;;;;;11.35;7.90;;;;;;;8.49;68.35;101973.13;4130975;28;20039;-61
2021/12/14 04:11:34;;;;;;;10.40;6.78;;;;;;;8.43;68.73;101967.63;4130490;28;20046;-59
2021/12/14 04:13:42;;;;;;;13.63;7.88;;;;;;;8.43;68.81;101967.63;4131184;28;20479;-59
2021/12/14 04:15:49;;;;;;;12.57;7.53;;;;;;;8.44;68.90;101971.09;4147384;28;20057;-62
2021/12/14 04:17:55;;;;;;;11.40;7.88;;;;;;;8.44;69.01;101960.72;4131135;28;20042;-59
2021/12/14 04:19:58;;;;;;;11.80;8.23;;;;;;;8.43;69.12;101956.38;4147582;28;20042;-60
2021/12/14 04:22:06;;;;;;;10.35;7.15;;;;;;;8.47;69.00;101960.91;4147372;28;20306;-60
2021/12/14 04:24:11;;;;;;;11.57;8.43;;;;;;;8.46;69.21;101965.19;4131235;28;20507;-60
2021/12/14 04:26:17;;;;;;;10.05;7.60;;;;;;;8.43;69.26;101967.63;4131078;28;20053;-62
2021/12/14 04:28:24;;;;;;;12.77;8.00;;;;;;;8.38;69.08;101966.50;4148579;28;20095;-60
2021/12/14 04:30:29;;;;;;;11.45;8.25;;;;;;;8.37;69.39;101968.22;4129514;28;20471;-60
2021/12/14 04:32:36;;;;;;;10.98;7.40;;;;;;;8.36;69.57;101969.03;4147363;28;20446;-60
2021/12/14 04:34:41;;;;;;;12.23;8.30;;;;;;;8.36;69.58;101971.59;4149015;28;20049;-61
2021/12/14 04:36:47;;;;;;;11.10;7.55;;;;;;;8.38;69.62;101972.59;4147209;28;20050;-60
2021/12/14 04:38:55;;;;;;;10.43;7.50;;;;;;;8.43;69.66;101984.88;4146856;28;20530;-60
2021/12/14 04:53:03;;;;;;;10.65;7.35;;;;;;;8.32;69.68;102007.69;4146752;28;20547;-60
2021/12/14 04:55:09;;;;;;;10.73;7.90;;;;;;;8.34;69.25;102001.75;4130386;28;20047;-60
2021/12/14 04:57:20;;;;;;;12.77;8.00;;;;;;;8.34;69.54;101999.16;4130436;28;20101;-60
2021/12/14 04:59:28;;;;;;;11.70;7.50;;;;;;;8.38;69.50;101997.59;4130332;28;20042;-60
2021/12/14 05:01:33;;;;;;;11.63;7.75;;;;;;;8.36;69.21;102000.13;4130874;28;20074;-58
2021/12/14 05:03:40;;;;;;;10.90;7.82;;;;;;;8.33;69.26;102009.47;4130946;28;20133;-58
2021/12/14 05:05:49;;;;;;;11.55;7.30;;;;;;;8.30;69.06;102012.78;4145743;28;20625;-61
2021/12/14 05:10:28;;;;;;;9.68;6.57;;;;;;;8.24;69.26;102017.69;4128992;28;20051;-61
2021/12/14 05:12:37;;;;;;;9.85;7.43;;;;;;;8.29;69.30;102023.94;4147293;28;20041;-60
2021/12/14 05:14:49;;;;;;;9.52;7.03;;;;;;;8.25;69.46;102023.72;4119141;28;20535;-59
2021/12/14 05:16:55;;;;;;;12.30;7.57;;;;;;;8.19;69.30;102016.53;4130693;28;20046;-60
2021/12/14 05:19:08;;;;;;;11.13;7.05;;;;;;;8.15;69.42;102012.94;4129586;28;20043;-61
2021/12/14 05:21:13;;;;;;;9.27;6.47;;;;;;;8.21;69.47;102014.94;4146828;28;20052;-61
2021/12/14 05:23:20;;;;;;;9.27;6.45;;;;;;;8.23;69.08;102013.28;4130559;28;20042;-60
2021/12/14 05:25:28;;;;;;;10.57;6.38;;;;;;;8.27;68.87;102017.81;4120709;28;20042;-60
2021/12/14 05:27:48;;;;;;;11.32;7.00;;;;;;;8.27;68.46;102019.53;4116579;28;20047;-62
2021/12/14 05:29:52;;;;;;;9.77;6.88;;;;;;;8.28;68.97;102022.19;4130592;28;20050;-62
2021/12/14 05:31:56;;;;;;;8.40;6.13;;;;;;;8.35;68.29;102020.78;4146272;28;20096;-61
2021/12/14 05:34:01;;;;;;;15.85;6.75;;;;;;;8.37;67.93;102007.09;4129416;28;20053;-61
2021/12/14 05:36:09;;;;;;;9.40;6.53;;;;;;;8.39;67.88;102007.16;4146648;28;20045;-61
2021/12/14 05:38:18;;;;;;;10.85;6.18;;;;;;;8.38;68.20;102016.66;4129741;28;20086;-61
2021/12/14 05:40:40;;;;;;;8.90;5.93;;;;;;;8.39;67.96;102020.13;4129560;28;20449;-61
2021/12/14 05:45:19;;;;;;;17.30;12.70;;;;;;;8.34;67.85;102006.94;4136706;28;20085;-59
2021/12/14 05:47:24;;;;;;;8.95;6.18;;;;;;;8.35;68.02;102013.91;4142605;28;20100;-61
2021/12/14 05:49:37;;;;;;;10.10;5.97;;;;;;;8.33;67.93;102002.56;4145062;28;20046;-58
2021/12/14 05:51:41;;;;;;;;;;;;;;;8.24;68.05;101999.53;4147032;28;20049;-62
2021/12/14 05:53:46;;;;;;;11.75;7.07;;;;;;;8.29;67.85;102015.31;4146137;28;19979;-63
2021/12/14 05:55:51;;;;;;;15.75;11.38;;;;;;;8.31;67.46;102011.06;4128154;28;20046;-59
2021/12/14 05:57:57;;;;;;;10.75;7.90;;;;;;;8.39;67.68;102007.16;4143714;28;20046;-60
2021/12/14 06:00:00;;;;;;;13.18;6.47;;;;;;;8.36;67.79;102007.88;4127987;28;20046;-60
2021/12/14 06:02:09;;;;;;;9.13;6.32;;;;;;;8.39;67.49;102004.56;4144865;28;20453;-59
2021/12/14 06:04:15;;;;;;;9.05;6.35;;;;;;;8.39;67.62;101992.47;4148660;28;20037;-62
2021/12/14 06:06:20;;;;;;;9.02;5.88;;;;;;;8.38;67.56;101993.31;4128399;28;20057;-59
2021/12/14 06:08:27;;;;;;;9.02;6.15;;;;;;;8.39;67.68;101991.59;4144975;28;20138;-62
2021/12/14 06:10:38;;;;;;;8.25;5.35;;;;;;;8.44;67.71;101984.03;4127326;28;20065;-58
2021/12/14 06:12:43;;;;;;;11.25;6.63;;;;;;;8.45;67.46;101986.75;4134569;28;20399;-61
2021/12/14 06:14:55;;;;;;;9.18;5.70;;;;;;;8.47;67.11;101986.81;4123197;28;20042;-61
2021/12/14 06:17:02;;;;;;;11.75;6.50;;;;;;;8.48;66.97;101981.69;4127497;28;20145;-61
2021/12/14 06:19:16;;;;;;;8.30;5.53;;;;;;;8.47;66.74;101982.53;4123921;28;20514;-61
2021/12/14 06:21:30;;;;;;;9.60;5.88;;;;;;;8.45;66.89;101978.09;4124420;28;20046;-60
2021/12/14 06:23:34;;;;;;;8.68;5.60;;;;;;;8.46;66.70;101979.88;4142889;28;20046;-61
2021/12/14 06:25:55;;;;;;;9.13;4.95;;;;;;;8.42;67.23;101977.91;4141173;28;20073;-61
2021/12/14 06:28:01;;;;;;;18.60;5.93;;;;;;;8.42;67.20;101983.09;4141949;28;20141;-60
2021/12/14 06:30:08;;;;;;;8.80;5.72;;;;;;;8.36;67.32;101983.69;4143634;28;20037;-61
2021/12/14 06:32:17;;;;;;;8.07;5.47;;;;;;;8.35;67.37;101988.00;4143065;28;20553;-60
2021/12/14 06:34:24;;;;;;;9.20;5.88;;;;;;;8.36;67.79;101991.47;4146734;28;20494;-61
2021/12/14 06:37:04;;;;;;;9.10;5.80;;;;;;;8.39;67.08;101994.19;4123603;28;20756;-61
2021/12/14 06:39:10;;;;;;;11.10;6.13;;;;;;;8.33;66.92;101989.59;4146723;28;20434;-61
2021/12/14 06:41:17;;;;;;;9.82;5.72;;;;;;;8.35;67.16;101988.00;4139956;28;20042;-60
2021/12/14 06:43:42;;;;;;;10.07;5.80;;;;;;;8.36;67.09;101988.88;4140257;28;20470;-61
2021/12/14 06:45:55;;;;;;;11.50;5.78;;;;;;;8.37;67.19;101985.47;4128414;28;20046;-61
2021/12/14 06:48:10;;;;;;;11.25;6.00;;;;;;;8.30;67.31;101983.41;4128329;28;20046;-61
2021/12/14 06:50:18;;;;;;;7.50;5.53;;;;;;;8.29;67.15;101981.63;4129095;28;20070;-60
2021/12/14 06:52:21;;;;;;;9.63;5.40;;;;;;;8.31;67.19;101987.75;4145455;28;20141;-61
2021/12/14 06:54:34;;;;;;;9.68;5.43;;;;;;;8.29;67.36;101984.22;4146122;28;20535;-61
2021/12/14 06:57:06;;;;;;;7.20;5.50;;;;;;;8.28;67.20;101982.41;4147691;28;20123;-62
2021/12/14 06:59:45;;;;;;;11.00;5.75;;;;;;;8.28;67.74;101983.34;4123555;28;20082;-61
2021/12/14 07:01:59;;;;;;;8.30;5.82;;;;;;;8.30;67.38;101983.41;4144689;28;20534;-60
2021/12/14 07:04:06;;;;;;;9.15;5.05;;;;;;;8.29;67.23;101987.69;4145292;28;20056;-61
2021/12/14 07:06:14;;;;;;;7.85;5.07;;;;;;;8.30;67.32;101986.88;4129899;28;20049;-61
2021/12/14 07:08:26;;;;;;;8.38;5.13;;;;;;;8.31;67.02;101979.97;4133295;28;20109;-60
2021/12/14 07:10:34;;;;;;;8.68;4.80;;;;;;;8.30;66.80;101989.47;4149045;28;20042;-61
2021/12/14 07:12:40;;;;;;;8.25;5.20;;;;;;;8.32;66.95;101986.94;4132158;28;20050;-60
2021/12/14 07:14:57;;;;;;;8.18;5.30;;;;;;;8.33;66.94;101988.72;4150281;28;20038;-59
2021/12/14 07:17:08;;;;;;;7.13;4.85;;;;;;;8.36;66.59;101992.34;4150278;28;20038;-59
2021/12/14 07:19:11;;;;;;;6.28;4.45;;;;;;;8.31;66.56;101992.94;4149724;28;20108;-60
2021/12/14 07:21:15;;;;;;;9.88;4.25;;;;;;;8.29;66.89;101998.03;4150841;28;20077;-60
2021/12/14 07:23:22;;;;;;;9.25;4.75;;;;;;;8.24;66.58;101993.47;4150553;28;20048;-61
2021/12/14 07:25:28;;;;;;;8.35;4.22;;;;;;;8.26;66.65;101995.31;4150139;28;20041;-60
2021/12/14 07:27:32;;;;;;;9.13;4.50;;;;;;;8.28;66.52;101993.69;4149987;28;20046;-60
2021/12/14 07:29:37;;;;;;;7.55;4.15;;;;;;;8.28;66.99;101991.09;4148581;28;20450;-61
2021/12/14 07:31:42;;;;;;;6.78;4.40;;;;;;;8.26;66.96;102000.50;4148166;28;20077;-61
2021/12/14 07:33:48;;;;;;;7.13;5.05;;;;;;;8.30;66.61;102002.41;4149576;28;20046;-61
2021/12/14 07:35:57;;;;;;;10.35;4.60;;;;;;;8.29;66.50;101997.16;4150310;28;20045;-59
2021/12/14 07:38:05;;;;;;;6.68;4.65;;;;;;;8.31;66.64;101998.13;4147026;28;20065;-61
2021/12/14 07:40:09;;;;;;;5.60;4.00;;;;;;;8.33;66.26;102002.56;4147811;28;20495;-61
2021/12/14 07:42:17;;;;;;;7.57;4.60;;;;;;;8.32;66.35;102008.59;4130661;28;20046;-61
2021/12/14 07:44:36;;;;;;;8.18;4.05;;;;;;;8.32;66.46;102018.94;4131172;28;20050;-61
2021/12/14 07:46:43;;;;;;;6.53;4.25;;;;;;;8.37;66.65;102014.84;4149413;28;20050;-60
2021/12/14 07:48:49;;;;;;;6.22;4.32;;;;;;;8.42;66.68;102011.59;4148550;28;20053;-60
2021/12/14 07:50:57;;;;;;;6.15;4.30;;;;;;;8.43;66.18;102005.63;4148077;28;20454;-62
2021/12/14 07:53:00;;;;;;;6.82;4.40;;;;;;;8.46;66.26;102005.78;4149710;28;20042;-63
2021/12/14 07:55:15;;;;;;;8.60;4.50;;;;;;;8.46;65.87;102016.16;4149100;28;20046;-60
2021/12/14 07:57:23;;;;;;;5.97;4.38;;;;;;;8.43;66.46;102016.88;4149128;28;20037;-60
2021/12/14 07:59:29;;;;;;;13.10;5.05;;;;;;;8.44;66.59;102025.50;4147919;28;20112;-61
2021/12/14 08:01:32;;;;;;;8.35;5.07;;;;;;;8.43;66.69;102022.03;4147629;28;20080;-61
2021/12/14 08:03:38;;;;;;;6.95;4.63;;;;;;;8.50;66.42;102025.88;4148470;28;20046;-59
2021/12/14 08:05:44;;;;;;;9.23;4.80;;;;;;;8.53;67.89;102026.00;4149226;28;20108;-53
2021/12/14 08:07:55;;;;;;;7.65;4.97;;;;;;;8.54;66.81;102031.25;4146972;28;20042;-52
2021/12/14 08:10:07;;;;;;;7.10;4.53;;;;;;;8.51;66.33;102031.13;4146738;28;20046;-52
2021/12/14 08:12:10;;;;;;;7.18;4.43;;;;;;;8.48;66.97;102036.13;4148535;28;20060;-54
2021/12/14 08:14:18;;;;;;;6.80;4.22;;;;;;;8.42;67.20;102045.28;4146033;28;20042;-51
2021/12/14 08:16:21;;;;;;;7.78;4.82;;;;;;;8.48;66.92;102043.91;4147122;28;20494;-50
2021/12/14 08:18:27;;;;;;;6.55;4.20;;;;;;;8.51;66.87;102040.59;4147322;28;20041;-54
2021/12/14 08:20:33;;;;;;;12.77;4.82;;;;;;;8.69;67.02;102044.06;4146390;28;20108;-51
2021/12/14 08:22:39;;;;;;;9.90;5.75;;;;;;;8.73;66.14;102053.78;4147904;28;20051;-53
2021/12/14 08:24:49;;;;;;;6.65;3.78;;;;;;;8.79;65.95;102052.25;4148296;28;20454;-54
2021/12/14 08:26:57;;;;;;;6.88;4.63;;;;;;;8.79;65.78;102047.09;4149186;28;20495;-63
2021/12/14 08:29:03;;;;;;;6.85;4.10;;;;;;;8.82;65.54;102050.72;4149939;28;20125;-60
2021/12/14 08:31:07;;;;;;;5.32;3.88;;;;;;;8.85;65.64;102057.78;4147939;28;20537;-64
2021/12/14 08:33:19;;;;;;;6.70;4.45;;;;;;;8.86;65.30;102047.47;4150107;28;20052;-60
2021/12/14 08:35:23;;;;;;;6.78;4.30;;;;;;;8.78;65.51;102050.50;4145985;28;20104;-61
2021/12/14 08:37:31;;;;;;;6.05;3.97;;;;;;;8.86;65.30;102047.47;4148075;28;20057;-59
2021/12/14 08:39:41;;;;;;;8.20;4.60;;;;;;;8.83;65.50;102044.69;4148168;28;20569;-60
2021/12/14 08:46:09;;;;;;;7.40;4.30;;;;;;;8.58;65.49;102015.84;4197388;28;20043;-90
2021/12/14 08:48:29;;;;;;;11.80;5.47;;;;;;;8.68;65.74;102044.00;4181662;28;20068;-90
2021/12/14 08:50:38;;;;;;;7.53;5.47;;;;;;;8.68;65.39;102037.09;4182479;28;20038;-91
2021/12/14 08:55:03;;;;;;;7.15;4.90;;;;;;;8.72;65.59;102049.38;4132165;28;20073;-64
2021/12/14 08:57:10;;;;;;;7.40;4.63;;;;;;;8.73;65.82;102039.91;4128817;28;20038;-61
2021/12/14 08:59:13;;;;;;;8.00;5.70;;;;;;;8.71;65.64;102050.19;4124808;28;20502;-58
2021/12/14 09:01:19;;;;;;;8.75;5.70;;;;;;;8.76;65.89;102042.66;4145628;28;20053;-59
2021/12/14 09:03:32;;;;;;;9.20;5.53;;;;;;;8.82;65.75;102042.03;4146234;28;20061;-58
2021/12/14 09:05:40;;;;;;;7.38;5.43;;;;;;;8.89;65.57;102045.00;4145341;28;20557;-58
2021/12/14 09:07:44;;;;;;;9.52;5.50;;;;;;;8.94;65.39;102039.16;4147422;28;20052;-58
2021/12/14 09:09:48;;;;;;;8.90;6.07;;;;;;;8.92;65.08;102044.25;4146899;28;20054;-61
2021/12/14 09:11:56;;;;;;;12.32;6.35;;;;;;;8.92;65.28;102044.25;4147443;28;20041;-59
2021/12/14 09:14:00;;;;;;;9.05;6.60;;;;;;;8.89;65.46;102045.00;4147662;28;20503;-61
2021/12/14 09:16:06;;;;;;;10.57;6.50;;;;;;;8.86;65.36;102043.97;4149181;28;20520;-58
2021/12/14 09:18:12;;;;;;;12.55;7.10;;;;;;;8.86;65.55;102041.38;4147624;28;20111;-56
2021/12/14 09:20:19;;;;;;;8.65;6.57;;;;;;;8.90;65.31;102038.09;4147623;28;20092;-61
2021/12/14 09:22:25;;;;;;;9.02;6.90;;;;;;;8.99;65.02;102038.53;4143300;28;20450;-61
2021/12/14 09:24:30;;;;;;;11.48;7.53;;;;;;;9.03;64.78;102043.03;4145884;28;20038;-60
2021/12/14 09:26:36;;;;;;;9.85;7.70;;;;;;;9.04;64.77;102039.63;4145793;28;20116;-58
2021/12/14 09:28:40;;;;;;;12.07;7.53;;;;;;;9.01;64.85;102036.91;4145525;28;20104;-61
2021/12/14 09:30:48;;;;;;;13.00;8.15;;;;;;;9.07;64.72;102038.91;4144928;28;20038;-61
2021/12/14 09:32:52;;;;;;;9.88;7.60;;;;;;;9.09;64.62;102037.25;4146198;28;20182;-60
2021/12/14 09:34:56;;;;;;;11.35;8.63;;;;;;;9.22;64.45;102021.41;4143255;28;20169;-60
2021/12/14 09:37:01;;;;;;;12.23;8.13;;;;;;;9.28;64.32;102018.19;4146781;28;20041;-60
2021/12/14 09:39:09;;;;;;;11.48;8.35;;;;;;;9.32;63.98;102021.84;4145769;28;20071;-59
2021/12/14 09:41:18;;;;;;;12.45;9.20;;;;;;;9.30;64.06;102021.78;4144580;28;20104;-60
2021/12/14 09:43:22;;;;;;;11.85;8.45;;;;;;;9.32;64.09;102020.13;4145209;28;20514;-61
2021/12/14 09:45:33;;;;;;;15.10;8.02;;;;;;;9.35;63.83;102025.44;4144864;28;20042;-60
2021/12/14 09:47:37;;;;;;;13.93;8.35;;;;;;;9.36;63.90;102019.44;4144882;28;20567;-60
2021/12/14 09:49:42;;;;;;;13.05;8.48;;;;;;;9.42;63.62;102022.31;4143297;28;20097;-61
2021/12/14 09:51:49;;;;;;;15.05;9.38;;;;;;;9.44;63.61;102017.19;4145215;28;20050;-61
2021/12/14 09:53:55;;;;;;;16.05;10.38;;;;;;;9.46;63.64;102019.84;4144672;28;20069;-62
2021/12/14 09:55:59;;;;;;;17.52;9.50;;;;;;;9.46;63.64;102018.13;4145997;28;20424;-56
2021/12/14 09:58:07;;;;;;;15.93;9.63;;;;;;;9.52;63.31;102010.63;4143899;28;20046;-58
2021/12/14 10:00:15;;;;;;;11.77;8.68;;;;;;;9.54;63.16;102013.28;4140781;28;20068;-58
2021/12/14 10:02:24;;;;;;;13.50;8.40;;;;;;;9.58;62.94;102010.00;4142664;28;20045;-61
2021/12/14 10:04:30;;;;;;;12.73;9.57;;;;;;;9.53;63.26;102012.38;4146148;28;20069;-60
2021/12/14 10:06:35;;;;;;;12.68;9.45;;;;;;;9.50;63.04;102014.84;4148442;28;20052;-61
2021/12/14 10:08:40;;;;;;;;;;;;;;;9.33;62.74;102014.13;4150530;28;20065;-61
2021/12/14 10:10:45;;;;;;;12.82;9.50;;;;;;;9.35;63.50;102025.44;4147340;28;19952;-60
2021/12/14 10:12:50;;;;;;;;;;;;;;;9.25;63.58;102025.84;4149161;28;20653;-60
2021/12/14 10:14:54;;;;;;;15.52;9.85;;;;;;;9.36;63.91;102021.13;4147903;28;19937;-61
2021/12/14 10:16:58;;;;;;;14.38;9.80;;;;;;;9.42;63.41;102024.03;4141449;28;20038;-57
2021/12/14 10:19:09;;;;;;;15.18;10.70;;;;;;;9.52;63.44;102035.69;4146238;28;20054;-61
2021/12/14 10:21:16;;;;;;;12.70;10.48;;;;;;;9.52;63.19;102027.88;4143448;28;20505;-59
2021/12/14 10:23:21;;;;;;;13.80;10.27;;;;;;;9.52;63.63;102022.69;4144305;28;20507;-59
2021/12/14 10:25:26;;;;;;;16.80;10.95;;;;;;;9.42;63.90;102005.84;4146012;28;20388;-57